createdAt,value
2022-12-24T00:01:05.870Z,12.44
2022-12-24T00:03:34.048Z,12.43
2022-12-24T00:06:15.742Z,12.40
2022-12-24T00:08:42.620Z,12.55
2022-12-24T00:11:09.481Z,12.52
2022-12-24T00:13:36.375Z,12.53
2022-12-24T00:16:03.542Z,12.49
2022-12-24T00:18:30.478Z,12.55
2022-12-24T00:20:57.421Z,12.60
2022-12-24T00:23:24.504Z,12.63
2022-12-24T00:25:51.476Z,12.60
2022-12-24T00:28:18.482Z,12.61
2022-12-24T00:30:45.414Z,12.62
2022-12-24T00:33:12.525Z,12.63
2022-12-24T00:35:40.668Z,12.72
2022-12-24T00:38:08.800Z,12.66
2022-12-24T00:40:35.983Z,12.75
2022-12-24T00:43:03.218Z,12.69
2022-12-24T00:45:30.395Z,12.67
2022-12-24T00:47:57.264Z,12.60
2022-12-24T00:50:24.285Z,12.85
2022-12-24T00:52:51.365Z,12.78
2022-12-24T00:55:18.328Z,12.69
2022-12-24T00:57:45.272Z,12.64
2022-12-24T01:00:12.527Z,12.69
2022-12-24T01:02:39.562Z,12.56
2022-12-24T01:05:13.011Z,12.58
2022-12-24T01:07:44.957Z,12.55
2022-12-24T01:10:17.109Z,12.60
2022-12-24T01:12:45.337Z,12.56
2022-12-24T01:15:14.491Z,12.48
2022-12-24T01:17:41.634Z,12.46
2022-12-24T01:20:14.600Z,12.47
2022-12-24T01:22:41.521Z,12.40
2022-12-24T01:25:09.547Z,12.44
2022-12-24T01:27:36.651Z,12.44
2022-12-24T01:30:08.926Z,12.36
2022-12-24T01:32:36.104Z,12.27
2022-12-24T01:35:03.291Z,12.27
2022-12-24T01:37:30.250Z,12.25
2022-12-24T01:40:17.163Z,12.16
2022-12-24T01:43:21.876Z,12.13
2022-12-24T01:45:58.032Z,12.19
2022-12-24T01:49:00.934Z,12.25
2022-12-24T01:51:36.423Z,12.27
2022-12-24T01:54:30.940Z,12.28
2022-12-24T01:57:06.298Z,12.38
2022-12-24T01:59:34.469Z,12.35
2022-12-24T02:02:02.306Z,12.32
2022-12-24T02:04:38.341Z,12.33
2022-12-24T02:07:05.578Z,12.29
2022-12-24T02:09:34.650Z,12.30
2022-12-24T02:12:03.350Z,12.35
2022-12-24T02:14:32.351Z,12.42
2022-12-24T02:17:13.607Z,12.42
2022-12-24T02:20:27.179Z,12.30
2022-12-24T02:23:21.275Z,12.26
2022-12-24T02:26:15.870Z,12.10
2022-12-24T02:29:21.367Z,12.21
2022-12-24T02:32:13.543Z,12.26
2022-12-24T02:35:24.309Z,12.22
2022-12-24T02:38:04.374Z,12.18
2022-12-24T02:40:43.291Z,12.14
2022-12-24T02:43:16.734Z,12.09
2022-12-24T02:45:55.192Z,12.05
2022-12-24T02:48:26.725Z,11.98
2022-12-24T02:51:09.368Z,11.71
2022-12-24T02:53:37.682Z,11.81
2022-12-24T02:56:41.013Z,11.94
2022-12-24T03:00:04.120Z,11.91
2022-12-24T03:03:31.264Z,12.01
2022-12-24T03:06:09.681Z,12.00
2022-12-24T03:09:14.180Z,11.89
2022-12-24T03:11:50.888Z,11.83
2022-12-24T03:14:18.673Z,12.04
2022-12-24T03:16:46.757Z,12.22
2022-12-24T03:19:13.893Z,12.08
2022-12-24T03:21:42.559Z,12.03
2022-12-24T03:24:10.871Z,12.01
2022-12-24T03:26:39.635Z,12.14
2022-12-24T03:29:08.365Z,12.23
2022-12-24T03:31:50.870Z,12.17
2022-12-24T03:34:19.120Z,12.09
2022-12-24T03:36:49.193Z,12.11
2022-12-24T03:39:16.265Z,12.00
2022-12-24T03:41:43.261Z,11.87
2022-12-24T03:44:10.282Z,11.96
2022-12-24T03:46:37.180Z,12.02
2022-12-24T03:49:04.137Z,11.74
2022-12-24T03:51:31.060Z,11.83
2022-12-24T03:53:58.451Z,11.75
2022-12-24T03:56:26.233Z,11.65
2022-12-24T03:58:54.195Z,11.71
2022-12-24T04:01:21.228Z,11.69
2022-12-24T04:03:48.254Z,11.65
2022-12-24T04:06:17.968Z,11.73
2022-12-24T04:08:45.103Z,11.70
2022-12-24T04:11:15.856Z,11.61
2022-12-24T04:13:43.229Z,11.53
2022-12-24T04:16:13.556Z,11.48
2022-12-24T04:18:41.120Z,11.56
2022-12-24T04:21:09.103Z,11.51
2022-12-24T04:23:38.872Z,11.46
2022-12-24T04:26:09.131Z,11.56
2022-12-24T04:28:37.232Z,11.58
2022-12-24T04:31:09.150Z,11.45
2022-12-24T04:33:36.875Z,11.46
2022-12-24T04:36:06.464Z,11.34
2022-12-24T04:38:35.001Z,11.43
2022-12-24T04:41:24.919Z,11.46
2022-12-24T04:43:54.506Z,11.49
2022-12-24T04:46:30.663Z,11.46
2022-12-24T04:48:58.606Z,11.53
2022-12-24T04:51:26.700Z,11.57
2022-12-24T04:53:54.574Z,11.55
2022-12-24T04:56:25.037Z,11.67
2022-12-24T04:58:53.003Z,11.67
2022-12-24T05:01:29.376Z,11.67
2022-12-24T05:03:56.719Z,11.58
2022-12-24T05:06:30.280Z,11.66
2022-12-24T05:08:58.176Z,11.69
2022-12-24T05:11:25.734Z,11.60
2022-12-24T05:13:52.890Z,11.65
2022-12-24T05:16:22.638Z,11.76
2022-12-24T05:18:50.107Z,11.81
2022-12-24T05:21:21.425Z,11.73
2022-12-24T05:24:07.232Z,11.70
2022-12-24T05:26:41.909Z,11.73
2022-12-24T05:29:12.092Z,11.66
2022-12-24T05:31:40.305Z,11.62
2022-12-24T05:34:08.028Z,11.64
2022-12-24T05:36:35.255Z,11.65
2022-12-24T05:39:02.238Z,11.70
2022-12-24T05:41:29.223Z,11.63
2022-12-24T05:43:56.364Z,11.68
2022-12-24T05:46:25.040Z,11.56
2022-12-24T05:48:53.389Z,11.63
2022-12-24T05:51:22.379Z,11.63
2022-12-24T05:53:51.663Z,11.73
2022-12-24T05:56:22.538Z,11.64
2022-12-24T05:58:52.048Z,11.75
2022-12-24T06:01:19.860Z,11.74
2022-12-24T06:03:47.024Z,11.67
2022-12-24T06:06:19.358Z,11.66
2022-12-24T06:08:47.812Z,11.71
2022-12-24T06:11:17.080Z,11.65
2022-12-24T06:13:44.087Z,11.66
2022-12-24T06:16:20.022Z,11.71
2022-12-24T06:18:47.367Z,11.67
2022-12-24T06:21:15.206Z,11.70
2022-12-24T06:23:44.204Z,11.71
2022-12-24T06:26:15.982Z,11.81
2022-12-24T06:28:44.825Z,11.77
2022-12-24T06:31:16.568Z,11.83
2022-12-24T06:33:44.372Z,11.84
2022-12-24T06:36:21.866Z,11.90
2022-12-24T06:38:49.656Z,11.77
2022-12-24T06:41:18.244Z,11.80
2022-12-24T06:43:47.286Z,11.95
2022-12-24T06:46:15.704Z,11.73
2022-12-24T06:48:45.328Z,11.71
2022-12-24T06:51:19.445Z,11.78
2022-12-24T06:53:47.073Z,11.75
2022-12-24T06:56:14.620Z,11.83
2022-12-24T06:58:42.109Z,11.84
2022-12-24T07:01:13.580Z,11.89
2022-12-24T07:03:40.853Z,11.85
2022-12-24T07:06:15.450Z,11.77
2022-12-24T07:08:42.354Z,11.76
2022-12-24T07:11:09.225Z,11.72
2022-12-24T07:13:36.170Z,11.83
2022-12-24T07:16:05.265Z,11.63
2022-12-24T07:18:32.899Z,11.55
2022-12-24T07:21:00.922Z,11.65
2022-12-24T07:23:28.016Z,11.67
2022-12-24T07:25:54.894Z,11.65
2022-12-24T07:28:27.497Z,11.74
2022-12-24T07:30:56.663Z,11.53
2022-12-24T07:33:25.245Z,11.56
2022-12-24T07:36:05.725Z,11.59
2022-12-24T07:38:38.340Z,11.59
2022-12-24T07:41:05.493Z,11.59
2022-12-24T07:43:33.959Z,11.50
2022-12-24T07:46:00.834Z,11.30
2022-12-24T07:48:30.072Z,11.35
2022-12-24T07:50:57.879Z,11.29
2022-12-24T07:53:27.246Z,11.67
2022-12-24T07:55:54.396Z,11.39
2022-12-24T07:58:22.209Z,11.38
2022-12-24T08:00:49.123Z,11.49
2022-12-24T08:03:21.967Z,11.61
2022-12-24T08:05:49.726Z,11.35
2022-12-24T08:08:16.667Z,11.44
2022-12-24T08:10:45.645Z,11.43
2022-12-24T08:13:13.554Z,11.39
2022-12-24T08:15:40.542Z,11.54
2022-12-24T08:18:08.103Z,11.44
2022-12-24T08:20:39.716Z,11.59
2022-12-24T08:23:08.407Z,11.51
2022-12-24T08:25:35.705Z,11.48
2022-12-24T08:28:02.995Z,11.55
2022-12-24T08:30:30.155Z,11.55
2022-12-24T08:32:57.224Z,11.50
2022-12-24T08:35:24.088Z,11.40
2022-12-24T08:37:51.029Z,11.47
2022-12-24T08:40:18.093Z,11.53
2022-12-24T08:42:45.272Z,11.61
2022-12-24T08:45:12.360Z,11.69
2022-12-24T08:47:39.906Z,11.75
2022-12-24T08:50:08.485Z,11.73
2022-12-24T08:52:35.858Z,12.05
2022-12-24T08:55:03.504Z,11.80
2022-12-24T08:57:30.641Z,12.02
2022-12-24T08:59:57.495Z,11.80
2022-12-24T09:02:24.569Z,11.70
2022-12-24T09:04:51.596Z,11.71
2022-12-24T09:07:18.457Z,11.79
2022-12-24T09:09:45.416Z,11.69
2022-12-24T09:12:12.412Z,11.64
2022-12-24T09:14:39.328Z,11.85
2022-12-24T09:17:06.332Z,11.64
2022-12-24T09:19:33.323Z,11.77
2022-12-24T09:22:00.353Z,11.55
2022-12-24T09:24:27.391Z,11.81
2022-12-24T09:26:57.989Z,11.60
2022-12-24T09:29:25.479Z,11.62
2022-12-24T09:31:52.717Z,11.77
2022-12-24T09:34:22.698Z,11.69
2022-12-24T09:36:54.177Z,11.72
2022-12-24T09:39:21.177Z,11.66
2022-12-24T09:42:09.412Z,11.76
2022-12-24T09:44:48.007Z,11.91
2022-12-24T09:47:44.761Z,11.76
2022-12-24T09:50:33.995Z,11.86
2022-12-24T09:53:07.923Z,11.95
2022-12-24T09:55:44.579Z,11.91
2022-12-24T09:58:25.436Z,12.04
2022-12-24T10:00:53.788Z,11.82
2022-12-24T10:03:20.749Z,11.98
2022-12-24T10:05:57.321Z,11.87
2022-12-24T10:08:59.517Z,11.96
2022-12-24T10:12:00.114Z,12.03
2022-12-24T10:14:51.709Z,11.94
2022-12-24T10:17:45.697Z,11.92
2022-12-24T10:21:01.207Z,11.92
2022-12-24T10:23:39.333Z,11.85
2022-12-24T10:26:29.066Z,12.16
2022-12-24T10:29:01.937Z,12.23
2022-12-24T10:31:36.571Z,12.46
2022-12-24T10:34:24.434Z,12.51
2022-12-24T10:36:52.006Z,12.27
2022-12-24T10:39:26.261Z,12.18
2022-12-24T10:41:57.848Z,12.17
2022-12-24T10:44:29.784Z,12.18
2022-12-24T10:46:56.890Z,12.05
2022-12-24T10:49:36.786Z,12.00
2022-12-24T10:52:12.523Z,11.91
2022-12-24T10:55:18.969Z,11.97
2022-12-24T10:57:58.429Z,12.05
2022-12-24T11:00:31.789Z,12.11
2022-12-24T11:03:33.674Z,12.21
2022-12-24T11:06:13.185Z,12.53
2022-12-24T11:08:44.118Z,12.44
2022-12-24T11:11:20.590Z,12.42
2022-12-24T11:13:50.298Z,12.41
2022-12-24T11:16:33.736Z,12.55
2022-12-24T11:19:05.603Z,12.72
2022-12-24T11:21:36.491Z,12.69
2022-12-24T11:24:12.744Z,12.69
2022-12-24T11:26:42.421Z,12.80
2022-12-24T11:29:22.914Z,12.63
2022-12-24T11:31:52.693Z,12.76
2022-12-24T11:34:27.164Z,12.71
2022-12-24T11:37:14.257Z,12.72
2022-12-24T11:39:51.072Z,12.75
2022-12-24T11:42:33.063Z,12.91
2022-12-24T11:45:04.677Z,13.00
2022-12-24T11:47:40.813Z,13.05
2022-12-24T11:50:23.007Z,13.35
2022-12-24T11:53:20.845Z,13.37
2022-12-24T11:55:57.033Z,13.25
2022-12-24T11:58:49.240Z,13.49
2022-12-24T12:01:30.307Z,13.48
2022-12-24T12:04:22.106Z,13.26
2022-12-24T12:07:27.704Z,13.10
2022-12-24T12:10:15.153Z,13.05
2022-12-24T12:12:47.409Z,12.97
2022-12-24T12:15:22.621Z,12.94
2022-12-24T12:17:57.088Z,13.15
2022-12-24T12:20:47.495Z,13.06
2022-12-24T12:23:37.120Z,12.95
2022-12-24T12:26:15.546Z,12.85
2022-12-24T12:28:58.660Z,12.81
2022-12-24T12:31:37.492Z,12.95
2022-12-24T12:34:17.416Z,12.90
2022-12-24T12:36:51.077Z,12.84
2022-12-24T12:39:18.158Z,12.77
2022-12-24T12:42:03.636Z,12.66
2022-12-24T12:45:02.617Z,12.87
2022-12-24T12:48:01.242Z,12.75
2022-12-24T12:50:47.898Z,12.73
2022-12-24T12:53:37.127Z,12.89
2022-12-24T12:56:12.912Z,12.92
2022-12-24T12:59:10.496Z,12.77
2022-12-24T13:01:54.387Z,12.82
2022-12-24T13:04:40.597Z,12.89
2022-12-24T13:07:42.025Z,13.03
2022-12-24T13:10:39.955Z,12.83
2022-12-24T13:13:49.963Z,12.81
2022-12-24T13:16:34.908Z,12.86
2022-12-24T13:19:18.178Z,12.86
2022-12-24T13:21:48.941Z,12.90
2022-12-24T13:24:22.384Z,12.67
2022-12-24T13:27:18.017Z,12.81
2022-12-24T13:30:09.270Z,12.86
2022-12-24T13:32:49.935Z,13.05
2022-12-24T13:35:19.852Z,12.99
2022-12-24T13:37:48.610Z,13.16
2022-12-24T13:40:26.663Z,13.10
2022-12-24T13:43:02.304Z,13.01
2022-12-24T13:45:29.315Z,12.90
2022-12-24T13:48:16.524Z,12.78
2022-12-24T13:50:45.611Z,12.73
2022-12-24T13:53:28.413Z,12.95
2022-12-24T13:56:05.231Z,12.82
2022-12-24T13:58:33.312Z,12.83
2022-12-24T14:01:06.663Z,12.81
2022-12-24T14:03:42.671Z,12.84
2022-12-24T14:06:23.736Z,12.89
2022-12-24T14:09:13.918Z,12.74
2022-12-24T14:11:59.217Z,12.69
2022-12-24T14:14:35.092Z,12.76
2022-12-24T14:17:12.124Z,12.64
2022-12-24T14:19:47.562Z,13.02
2022-12-24T14:22:39.217Z,12.84
2022-12-24T14:25:23.912Z,12.74
2022-12-24T14:28:13.261Z,12.79
2022-12-24T14:30:40.315Z,12.70
2022-12-24T14:33:31.672Z,12.72
2022-12-24T14:35:59.866Z,12.66
2022-12-24T14:38:27.248Z,12.52
2022-12-24T14:41:28.687Z,12.52
2022-12-24T14:44:15.988Z,12.54
2022-12-24T14:46:45.277Z,12.51
2022-12-24T14:49:44.996Z,12.52
2022-12-24T14:55:31.767Z,12.48
2022-12-24T14:58:40.117Z,12.48
2022-12-24T15:01:29.772Z,12.45
2022-12-24T15:04:15.713Z,12.45
2022-12-24T15:06:56.690Z,12.46
2022-12-24T15:09:33.897Z,12.37
2022-12-24T15:12:04.475Z,12.48
2022-12-24T15:14:43.194Z,12.35
2022-12-24T15:17:12.443Z,12.36
2022-12-24T15:19:43.493Z,12.38
2022-12-24T15:22:25.461Z,12.41
2022-12-24T15:24:52.470Z,12.42
2022-12-24T15:27:26.495Z,12.33
2022-12-24T15:29:58.235Z,12.39
2022-12-24T15:32:25.294Z,12.32
2022-12-24T15:34:55.357Z,12.20
2022-12-24T15:37:37.732Z,12.14
2022-12-24T15:40:19.667Z,12.12
2022-12-24T15:42:46.874Z,12.16
2022-12-24T15:45:28.185Z,12.35
2022-12-24T15:48:07.269Z,12.27
2022-12-24T15:50:47.267Z,12.34
2022-12-24T15:53:19.987Z,12.23
2022-12-24T15:56:01.506Z,12.27
2022-12-24T15:58:34.347Z,12.21
2022-12-24T16:01:26.576Z,12.17
2022-12-24T16:03:53.691Z,12.21
2022-12-24T16:06:21.865Z,12.05
2022-12-24T16:08:50.944Z,11.92
2022-12-24T16:11:35.944Z,11.88
2022-12-24T16:14:13.568Z,11.98
2022-12-24T16:16:44.490Z,11.79
2022-12-24T16:19:25.915Z,11.66
2022-12-24T16:22:25.117Z,11.63
2022-12-24T16:24:55.719Z,11.52
2022-12-24T16:27:22.832Z,11.52
2022-12-24T16:29:50.282Z,11.33
2022-12-24T16:32:38.103Z,11.20
2022-12-24T16:35:12.842Z,11.20
2022-12-24T16:37:39.842Z,11.24
2022-12-24T16:40:16.145Z,11.27
2022-12-24T16:43:02.793Z,11.28
2022-12-24T16:45:33.234Z,11.39
2022-12-24T16:48:00.677Z,11.40
2022-12-24T16:50:27.669Z,11.39
2022-12-24T16:52:54.641Z,11.33
2022-12-24T16:55:21.526Z,11.39
2022-12-24T16:57:48.460Z,11.52
2022-12-24T17:00:19.968Z,11.64
2022-12-24T17:02:48.732Z,11.59
2022-12-24T17:05:15.958Z,11.37
2022-12-24T17:07:44.014Z,11.18
2022-12-24T17:10:13.817Z,11.13
2022-12-24T17:12:40.925Z,11.09
2022-12-24T17:15:08.766Z,11.03
2022-12-24T17:17:36.548Z,11.02
2022-12-24T17:20:07.301Z,10.95
2022-12-24T17:22:34.230Z,11.02
2022-12-24T17:25:01.124Z,11.04
2022-12-24T17:27:28.363Z,11.15
2022-12-24T17:29:55.423Z,11.21
2022-12-24T17:32:22.408Z,11.56
2022-12-24T17:34:49.341Z,11.63
2022-12-24T17:37:16.453Z,11.56
2022-12-24T17:39:43.485Z,11.52
2022-12-24T17:42:10.580Z,11.24
2022-12-24T17:44:37.525Z,11.23
2022-12-24T17:47:05.409Z,11.24
2022-12-24T17:49:32.473Z,11.23
2022-12-24T17:51:59.738Z,11.17
2022-12-24T17:54:26.936Z,11.09
2022-12-24T17:56:53.810Z,11.02
2022-12-24T17:59:21.077Z,11.01
2022-12-24T18:01:48.141Z,10.98
2022-12-24T18:04:16.376Z,10.97
2022-12-24T18:06:49.090Z,11.02
2022-12-24T18:09:16.954Z,11.11
2022-12-24T18:11:43.913Z,11.40
2022-12-24T18:14:14.271Z,11.38
2022-12-24T18:16:44.241Z,11.50
2022-12-24T18:19:12.765Z,11.25
2022-12-24T18:21:40.573Z,11.22
2022-12-24T18:24:09.006Z,11.16
2022-12-24T18:26:36.002Z,11.15
2022-12-24T18:29:08.706Z,11.11
2022-12-24T18:31:37.017Z,11.04
2022-12-24T18:34:07.458Z,11.37
2022-12-24T18:36:35.229Z,11.20
2022-12-24T18:39:02.314Z,11.16
2022-12-24T18:41:31.185Z,11.11
2022-12-24T18:43:59.906Z,10.96
2022-12-24T18:46:30.714Z,11.01
2022-12-24T18:48:59.723Z,10.99
2022-12-24T18:51:35.248Z,10.94
2022-12-24T18:54:03.281Z,10.96
2022-12-24T18:56:31.232Z,11.05
2022-12-24T18:59:01.899Z,10.98
2022-12-24T19:01:34.534Z,11.03
2022-12-24T19:04:02.116Z,11.36
2022-12-24T19:06:29.440Z,11.47
2022-12-24T19:08:58.244Z,11.25
2022-12-24T19:11:29.286Z,11.46
2022-12-24T19:13:58.017Z,11.42
2022-12-24T19:16:26.256Z,11.25
2022-12-24T19:18:53.480Z,11.22
2022-12-24T19:21:20.925Z,11.25
2022-12-24T19:23:48.359Z,11.11
2022-12-24T19:26:17.170Z,11.30
2022-12-24T19:28:44.433Z,11.06
2022-12-24T19:31:18.082Z,11.22
2022-12-24T19:33:51.632Z,11.17
2022-12-24T19:36:23.671Z,11.17
2022-12-24T19:38:50.647Z,11.03
2022-12-24T19:41:21.418Z,10.90
2022-12-24T19:43:51.756Z,10.78
2022-12-24T19:46:25.942Z,10.80
2022-12-24T19:48:57.134Z,10.81
2022-12-24T19:51:26.025Z,10.80
2022-12-24T19:53:55.184Z,10.80
2022-12-24T19:56:24.744Z,10.98
2022-12-24T19:58:52.473Z,10.87
2022-12-24T20:01:22.528Z,10.81
2022-12-24T20:03:51.601Z,10.81
2022-12-24T20:06:21.679Z,10.84
2022-12-24T20:08:48.737Z,10.89
2022-12-24T20:11:19.621Z,10.92
2022-12-24T20:13:46.749Z,10.92
2022-12-24T20:16:21.085Z,10.87
2022-12-24T20:18:59.831Z,10.94
2022-12-24T20:21:27.566Z,10.97
2022-12-24T20:23:55.127Z,10.95
2022-12-24T20:26:26.212Z,11.02
2022-12-24T20:28:53.947Z,10.95
2022-12-24T20:31:27.467Z,11.05
2022-12-24T20:33:55.551Z,11.14
2022-12-24T20:36:23.823Z,11.06
2022-12-24T20:38:51.351Z,11.00
2022-12-24T20:41:22.588Z,11.12
2022-12-24T20:43:49.895Z,11.00
2022-12-24T20:46:19.353Z,10.99
2022-12-24T20:48:47.132Z,11.21
2022-12-24T20:51:25.328Z,11.04
2022-12-24T20:53:59.641Z,11.37
2022-12-24T20:56:26.778Z,11.45
2022-12-24T20:58:54.260Z,11.31
2022-12-24T21:01:25.001Z,11.38
2022-12-24T21:03:54.241Z,11.20
2022-12-24T21:06:23.741Z,11.19
2022-12-24T21:08:52.250Z,11.13
2022-12-24T21:11:39.215Z,11.16
2022-12-24T21:14:06.382Z,11.16
2022-12-24T21:16:35.764Z,11.06
2022-12-24T21:19:03.762Z,11.05
2022-12-24T21:21:30.906Z,10.91
2022-12-24T21:23:58.352Z,10.98
2022-12-24T21:26:25.320Z,10.89
2022-12-24T21:28:53.131Z,10.97
2022-12-24T21:31:20.624Z,11.02
2022-12-24T21:33:47.885Z,11.03
2022-12-24T21:36:16.010Z,11.04
2022-12-24T21:38:43.064Z,10.99
2022-12-24T21:41:17.762Z,11.03
2022-12-24T21:43:46.413Z,10.79
2022-12-24T21:46:18.583Z,11.06
2022-12-24T21:49:05.320Z,11.09
2022-12-24T21:51:32.583Z,10.82
2022-12-24T21:54:18.457Z,10.83
2022-12-24T21:57:03.878Z,10.93
2022-12-24T21:59:31.166Z,10.99
2022-12-24T22:01:58.728Z,11.00
2022-12-24T22:04:26.298Z,11.07
2022-12-24T22:07:12.328Z,10.86
2022-12-24T22:09:58.807Z,10.78
2022-12-24T22:12:30.111Z,10.95
2022-12-24T22:14:57.225Z,10.71
2022-12-24T22:17:25.818Z,10.78
2022-12-24T22:19:54.502Z,10.70
2022-12-24T22:22:22.682Z,10.69
2022-12-24T22:24:49.750Z,10.62
2022-12-24T22:27:16.678Z,10.56
2022-12-24T22:29:43.792Z,10.58
2022-12-24T22:32:10.683Z,10.80
2022-12-24T22:34:37.564Z,10.85
2022-12-24T22:37:04.500Z,10.78
2022-12-24T22:39:31.442Z,10.74
2022-12-24T22:41:58.419Z,10.76
2022-12-24T22:44:25.810Z,10.77
2022-12-24T22:46:52.825Z,10.73
2022-12-24T22:49:19.876Z,10.69
2022-12-24T22:51:46.957Z,10.72
2022-12-24T22:54:13.951Z,10.62
2022-12-24T22:56:41.719Z,10.64
2022-12-24T22:59:13.236Z,10.81
2022-12-24T23:01:44.595Z,10.93
2022-12-24T23:04:13.170Z,10.72
2022-12-24T23:06:40.934Z,10.69
2022-12-24T23:09:11.136Z,10.74
2022-12-24T23:11:40.475Z,10.79
2022-12-24T23:14:26.291Z,10.99
2022-12-24T23:16:54.387Z,10.77
2022-12-24T23:19:21.267Z,10.92
2022-12-24T23:21:48.294Z,10.67
2022-12-24T23:24:15.245Z,10.64
2022-12-24T23:26:42.223Z,10.56
2022-12-24T23:29:09.179Z,10.61
2022-12-24T23:31:37.694Z,10.62
2022-12-24T23:34:04.824Z,10.73
2022-12-24T23:36:31.824Z,10.62
2022-12-24T23:38:58.865Z,10.55
2022-12-24T23:41:25.785Z,10.62
2022-12-24T23:43:53.116Z,10.53
2022-12-24T23:46:21.426Z,10.67
2022-12-24T23:48:53.991Z,10.87
2022-12-24T23:51:24.636Z,10.80
2022-12-24T23:53:53.091Z,10.55
2022-12-24T23:56:21.556Z,10.47
2022-12-24T23:58:49.132Z,10.59
